sensor_id;sensor_type;location;lat;lon;timestamp;P1;durP1;ratioP1;P2;durP2;ratioP2
10653;SDS011;5375;51.250;6.776;2022-12-19T00:01:55;4.90;;;4.10;;
10653;SDS011;5375;51.250;6.776;2022-12-19T00:04:22;5.67;;;4.60;;
10653;SDS011;5375;51.250;6.776;2022-12-19T00:06:48;4.93;;;4.37;;
10653;SDS011;5375;51.250;6.776;2022-12-19T00:09:14;4.77;;;4.27;;
10653;SDS011;5375;51.250;6.776;2022-12-19T00:11:40;5.60;;;4.23;;
10653;SDS011;5375;51.250;6.776;2022-12-19T00:14:07;6.50;;;4.27;;
10653;SDS011;5375;51.250;6.776;2022-12-19T00:16:34;5.10;;;4.40;;
10653;SDS011;5375;51.250;6.776;2022-12-19T00:19:00;5.70;;;4.60;;
10653;SDS011;5375;51.250;6.776;2022-12-19T00:21:26;4.67;;;3.97;;
10653;SDS011;5375;51.250;6.776;2022-12-19T00:23:53;6.07;;;4.40;;
10653;SDS011;5375;51.250;6.776;2022-12-19T00:28:55;5.10;;;4.10;;
10653;SDS011;5375;51.250;6.776;2022-12-19T00:31:22;6.33;;;4.80;;
10653;SDS011;5375;51.250;6.776;2022-12-19T00:33:49;5.13;;;4.20;;
10653;SDS011;5375;51.250;6.776;2022-12-19T00:36:16;4.87;;;3.93;;
10653;SDS011;5375;51.250;6.776;2022-12-19T00:38:42;5.03;;;4.10;;
10653;SDS011;5375;51.250;6.776;2022-12-19T00:41:13;5.73;;;4.60;;
10653;SDS011;5375;51.250;6.776;2022-12-19T00:43:39;5.30;;;4.17;;
10653;SDS011;5375;51.250;6.776;2022-12-19T00:46:06;5.40;;;4.27;;
10653;SDS011;5375;51.250;6.776;2022-12-19T00:48:33;5.17;;;4.10;;
10653;SDS011;5375;51.250;6.776;2022-12-19T00:51:03;5.17;;;4.20;;
10653;SDS011;5375;51.250;6.776;2022-12-19T00:53:29;7.53;;;4.30;;
10653;SDS011;5375;51.250;6.776;2022-12-19T00:55:55;6.57;;;4.53;;
10653;SDS011;5375;51.250;6.776;2022-12-19T00:58:21;5.20;;;4.17;;
10653;SDS011;5375;51.250;6.776;2022-12-19T01:00:47;5.37;;;4.53;;
10653;SDS011;5375;51.250;6.776;2022-12-19T01:03:13;5.50;;;4.23;;
10653;SDS011;5375;51.250;6.776;2022-12-19T01:05:39;5.30;;;4.30;;
10653;SDS011;5375;51.250;6.776;2022-12-19T01:08:05;5.57;;;4.40;;
10653;SDS011;5375;51.250;6.776;2022-12-19T01:10:31;4.63;;;3.87;;
10653;SDS011;5375;51.250;6.776;2022-12-19T01:12:57;5.70;;;4.70;;
10653;SDS011;5375;51.250;6.776;2022-12-19T01:15:24;6.40;;;4.60;;
10653;SDS011;5375;51.250;6.776;2022-12-19T01:17:50;5.97;;;4.07;;
10653;SDS011;5375;51.250;6.776;2022-12-19T01:20:17;5.13;;;4.30;;
10653;SDS011;5375;51.250;6.776;2022-12-19T01:22:43;6.00;;;4.37;;
10653;SDS011;5375;51.250;6.776;2022-12-19T01:25:10;6.23;;;4.20;;
10653;SDS011;5375;51.250;6.776;2022-12-19T01:27:36;5.90;;;4.30;;
10653;SDS011;5375;51.250;6.776;2022-12-19T01:30:02;5.17;;;4.20;;
10653;SDS011;5375;51.250;6.776;2022-12-19T01:32:29;5.67;;;4.40;;
10653;SDS011;5375;51.250;6.776;2022-12-19T01:34:55;5.70;;;4.27;;
10653;SDS011;5375;51.250;6.776;2022-12-19T01:37:21;5.67;;;4.37;;
10653;SDS011;5375;51.250;6.776;2022-12-19T01:39:47;6.00;;;4.60;;
10653;SDS011;5375;51.250;6.776;2022-12-19T01:42:17;5.10;;;4.10;;
10653;SDS011;5375;51.250;6.776;2022-12-19T01:47:29;5.90;;;4.30;;
10653;SDS011;5375;51.250;6.776;2022-12-19T01:49:55;5.03;;;3.97;;
10653;SDS011;5375;51.250;6.776;2022-12-19T01:52:21;7.93;;;4.40;;
10653;SDS011;5375;51.250;6.776;2022-12-19T01:54:47;5.07;;;4.17;;
10653;SDS011;5375;51.250;6.776;2022-12-19T01:57:14;5.33;;;3.97;;
10653;SDS011;5375;51.250;6.776;2022-12-19T01:59:49;6.37;;;4.43;;
10653;SDS011;5375;51.250;6.776;2022-12-19T02:02:18;5.63;;;4.30;;
10653;SDS011;5375;51.250;6.776;2022-12-19T02:04:44;5.13;;;3.83;;
10653;SDS011;5375;51.250;6.776;2022-12-19T02:07:11;5.70;;;4.43;;
10653;SDS011;5375;51.250;6.776;2022-12-19T02:09:37;5.80;;;4.40;;
10653;SDS011;5375;51.250;6.776;2022-12-19T02:12:03;4.50;;;4.00;;
10653;SDS011;5375;51.250;6.776;2022-12-19T02:14:29;5.93;;;4.50;;
10653;SDS011;5375;51.250;6.776;2022-12-19T02:16:58;5.33;;;4.33;;
10653;SDS011;5375;51.250;6.776;2022-12-19T02:19:37;5.50;;;4.50;;
10653;SDS011;5375;51.250;6.776;2022-12-19T02:34:33;6.27;;;4.37;;
10653;SDS011;5375;51.250;6.776;2022-12-19T02:37:06;5.77;;;4.30;;
10653;SDS011;5375;51.250;6.776;2022-12-19T02:39:36;5.90;;;4.10;;
10653;SDS011;5375;51.250;6.776;2022-12-19T02:42:05;4.97;;;4.10;;
10653;SDS011;5375;51.250;6.776;2022-12-19T02:44:35;5.53;;;4.27;;
10653;SDS011;5375;51.250;6.776;2022-12-19T02:47:02;5.93;;;4.57;;
10653;SDS011;5375;51.250;6.776;2022-12-19T02:49:29;6.67;;;4.37;;
10653;SDS011;5375;51.250;6.776;2022-12-19T02:51:55;5.43;;;4.30;;
10653;SDS011;5375;51.250;6.776;2022-12-19T02:54:21;7.57;;;4.60;;
10653;SDS011;5375;51.250;6.776;2022-12-19T02:57:02;5.53;;;4.67;;
10653;SDS011;5375;51.250;6.776;2022-12-19T02:59:42;5.27;;;3.97;;
10653;SDS011;5375;51.250;6.776;2022-12-19T03:04:55;5.23;;;3.87;;
10653;SDS011;5375;51.250;6.776;2022-12-19T03:10:04;5.20;;;4.10;;
10653;SDS011;5375;51.250;6.776;2022-12-19T03:12:37;5.27;;;4.13;;
10653;SDS011;5375;51.250;6.776;2022-12-19T03:15:04;11.90;;;4.17;;
10653;SDS011;5375;51.250;6.776;2022-12-19T03:17:35;6.30;;;4.23;;
10653;SDS011;5375;51.250;6.776;2022-12-19T03:20:09;5.50;;;4.30;;
10653;SDS011;5375;51.250;6.776;2022-12-19T03:22:37;8.33;;;3.97;;
10653;SDS011;5375;51.250;6.776;2022-12-19T03:25:03;5.70;;;4.10;;
10653;SDS011;5375;51.250;6.776;2022-12-19T03:27:31;6.90;;;4.47;;
10653;SDS011;5375;51.250;6.776;2022-12-19T03:30:09;5.30;;;4.13;;
10653;SDS011;5375;51.250;6.776;2022-12-19T03:32:37;5.37;;;3.93;;
10653;SDS011;5375;51.250;6.776;2022-12-19T03:35:15;4.67;;;3.83;;
10653;SDS011;5375;51.250;6.776;2022-12-19T03:37:42;4.90;;;3.80;;
10653;SDS011;5375;51.250;6.776;2022-12-19T03:40:11;5.03;;;3.60;;
10653;SDS011;5375;51.250;6.776;2022-12-19T03:42:38;6.23;;;3.97;;
10653;SDS011;5375;51.250;6.776;2022-12-19T03:48:20;4.77;;;3.87;;
10653;SDS011;5375;51.250;6.776;2022-12-19T03:53:24;4.87;;;3.90;;
10653;SDS011;5375;51.250;6.776;2022-12-19T03:55:53;5.33;;;4.27;;
10653;SDS011;5375;51.250;6.776;2022-12-19T03:58:26;5.13;;;3.93;;
10653;SDS011;5375;51.250;6.776;2022-12-19T04:00:53;4.67;;;3.80;;
10653;SDS011;5375;51.250;6.776;2022-12-19T04:03:20;4.80;;;3.70;;
10653;SDS011;5375;51.250;6.776;2022-12-19T04:05:47;7.00;;;4.30;;
10653;SDS011;5375;51.250;6.776;2022-12-19T04:08:13;5.27;;;3.70;;
10653;SDS011;5375;51.250;6.776;2022-12-19T04:10:42;5.33;;;3.90;;
10653;SDS011;5375;51.250;6.776;2022-12-19T04:13:15;6.47;;;3.67;;
10653;SDS011;5375;51.250;6.776;2022-12-19T04:18:20;4.83;;;3.87;;
10653;SDS011;5375;51.250;6.776;2022-12-19T04:23:44;4.73;;;3.70;;
10653;SDS011;5375;51.250;6.776;2022-12-19T04:26:12;5.43;;;4.23;;
10653;SDS011;5375;51.250;6.776;2022-12-19T04:28:43;5.43;;;3.93;;
10653;SDS011;5375;51.250;6.776;2022-12-19T04:31:11;4.67;;;4.03;;
10653;SDS011;5375;51.250;6.776;2022-12-19T04:33:38;5.17;;;3.90;;
10653;SDS011;5375;51.250;6.776;2022-12-19T04:36:04;4.97;;;3.97;;
10653;SDS011;5375;51.250;6.776;2022-12-19T04:38:30;6.07;;;4.10;;
10653;SDS011;5375;51.250;6.776;2022-12-19T04:40:56;5.07;;;4.20;;
10653;SDS011;5375;51.250;6.776;2022-12-19T04:43:22;5.97;;;4.30;;
10653;SDS011;5375;51.250;6.776;2022-12-19T04:45:48;4.90;;;3.87;;
10653;SDS011;5375;51.250;6.776;2022-12-19T04:48:14;6.03;;;4.10;;
10653;SDS011;5375;51.250;6.776;2022-12-19T04:50:40;5.27;;;4.13;;
10653;SDS011;5375;51.250;6.776;2022-12-19T04:53:06;5.20;;;4.07;;
10653;SDS011;5375;51.250;6.776;2022-12-19T04:55:32;4.73;;;3.80;;
10653;SDS011;5375;51.250;6.776;2022-12-19T04:57:59;5.90;;;4.23;;
10653;SDS011;5375;51.250;6.776;2022-12-19T05:00:25;5.03;;;3.93;;
10653;SDS011;5375;51.250;6.776;2022-12-19T05:02:51;4.67;;;3.90;;
10653;SDS011;5375;51.250;6.776;2022-12-19T05:05:17;10.77;;;3.70;;
10653;SDS011;5375;51.250;6.776;2022-12-19T05:07:43;5.27;;;3.80;;
10653;SDS011;5375;51.250;6.776;2022-12-19T05:10:10;5.43;;;4.60;;
10653;SDS011;5375;51.250;6.776;2022-12-19T05:12:36;6.13;;;3.83;;
10653;SDS011;5375;51.250;6.776;2022-12-19T05:15:03;5.57;;;4.03;;
10653;SDS011;5375;51.250;6.776;2022-12-19T05:17:29;5.83;;;4.07;;
10653;SDS011;5375;51.250;6.776;2022-12-19T05:19:55;5.10;;;3.50;;
10653;SDS011;5375;51.250;6.776;2022-12-19T05:22:21;4.60;;;3.90;;
10653;SDS011;5375;51.250;6.776;2022-12-19T05:24:47;4.70;;;3.80;;
10653;SDS011;5375;51.250;6.776;2022-12-19T05:27:13;4.23;;;3.73;;
10653;SDS011;5375;51.250;6.776;2022-12-19T05:29:39;4.93;;;3.70;;
10653;SDS011;5375;51.250;6.776;2022-12-19T05:32:05;4.60;;;3.87;;
10653;SDS011;5375;51.250;6.776;2022-12-19T05:34:32;8.07;;;3.30;;
10653;SDS011;5375;51.250;6.776;2022-12-19T05:36:58;4.87;;;3.50;;
10653;SDS011;5375;51.250;6.776;2022-12-19T05:39:24;4.93;;;3.60;;
10653;SDS011;5375;51.250;6.776;2022-12-19T05:41:50;6.07;;;3.63;;
10653;SDS011;5375;51.250;6.776;2022-12-19T05:44:16;5.47;;;2.87;;
10653;SDS011;5375;51.250;6.776;2022-12-19T05:46:42;3.90;;;3.13;;
10653;SDS011;5375;51.250;6.776;2022-12-19T05:49:08;5.43;;;3.43;;
10653;SDS011;5375;51.250;6.776;2022-12-19T05:51:33;5.00;;;3.60;;
10653;SDS011;5375;51.250;6.776;2022-12-19T05:54:00;5.00;;;3.70;;
10653;SDS011;5375;51.250;6.776;2022-12-19T05:56:26;6.17;;;3.20;;
10653;SDS011;5375;51.250;6.776;2022-12-19T05:58:52;5.03;;;3.37;;
10653;SDS011;5375;51.250;6.776;2022-12-19T06:01:22;4.13;;;3.20;;
10653;SDS011;5375;51.250;6.776;2022-12-19T06:03:49;4.60;;;3.07;;
10653;SDS011;5375;51.250;6.776;2022-12-19T06:06:16;4.70;;;3.30;;
10653;SDS011;5375;51.250;6.776;2022-12-19T06:08:42;4.37;;;3.43;;
10653;SDS011;5375;51.250;6.776;2022-12-19T06:11:09;3.63;;;3.07;;
10653;SDS011;5375;51.250;6.776;2022-12-19T06:13:35;3.40;;;3.10;;
10653;SDS011;5375;51.250;6.776;2022-12-19T06:18:28;4.53;;;3.57;;
10653;SDS011;5375;51.250;6.776;2022-12-19T06:21:00;3.80;;;3.00;;
10653;SDS011;5375;51.250;6.776;2022-12-19T06:23:28;3.77;;;3.07;;
10653;SDS011;5375;51.250;6.776;2022-12-19T06:25:57;3.80;;;2.87;;
10653;SDS011;5375;51.250;6.776;2022-12-19T06:28:23;4.17;;;2.90;;
10653;SDS011;5375;51.250;6.776;2022-12-19T06:32:04;3.87;;;3.20;;
10653;SDS011;5375;51.250;6.776;2022-12-19T06:34:30;3.93;;;3.00;;
10653;SDS011;5375;51.250;6.776;2022-12-19T06:36:56;4.00;;;3.60;;
10653;SDS011;5375;51.250;6.776;2022-12-19T06:39:22;3.80;;;3.37;;
10653;SDS011;5375;51.250;6.776;2022-12-19T06:41:48;6.30;;;3.33;;
10653;SDS011;5375;51.250;6.776;2022-12-19T06:44:33;3.47;;;3.17;;
10653;SDS011;5375;51.250;6.776;2022-12-19T06:46:59;4.50;;;3.10;;
10653;SDS011;5375;51.250;6.776;2022-12-19T06:49:25;4.37;;;3.13;;
10653;SDS011;5375;51.250;6.776;2022-12-19T06:51:51;3.47;;;3.10;;
10653;SDS011;5375;51.250;6.776;2022-12-19T06:54:17;3.63;;;2.93;;
10653;SDS011;5375;51.250;6.776;2022-12-19T06:56:43;3.83;;;3.00;;
10653;SDS011;5375;51.250;6.776;2022-12-19T06:59:13;3.00;;;2.53;;
10653;SDS011;5375;51.250;6.776;2022-12-19T07:01:43;3.97;;;2.97;;
10653;SDS011;5375;51.250;6.776;2022-12-19T07:04:14;4.00;;;3.40;;
10653;SDS011;5375;51.250;6.776;2022-12-19T07:06:41;4.07;;;2.87;;
10653;SDS011;5375;51.250;6.776;2022-12-19T07:09:07;3.40;;;3.10;;
10653;SDS011;5375;51.250;6.776;2022-12-19T07:11:33;3.20;;;2.80;;
10653;SDS011;5375;51.250;6.776;2022-12-19T07:13:59;3.93;;;2.77;;
10653;SDS011;5375;51.250;6.776;2022-12-19T07:16:25;3.87;;;3.00;;
10653;SDS011;5375;51.250;6.776;2022-12-19T07:18:51;3.10;;;2.80;;
10653;SDS011;5375;51.250;6.776;2022-12-19T07:21:18;4.73;;;3.57;;
10653;SDS011;5375;51.250;6.776;2022-12-19T07:23:44;4.27;;;3.00;;
10653;SDS011;5375;51.250;6.776;2022-12-19T07:26:10;4.50;;;3.40;;
10653;SDS011;5375;51.250;6.776;2022-12-19T07:28:36;3.83;;;3.03;;
10653;SDS011;5375;51.250;6.776;2022-12-19T07:31:02;4.00;;;3.20;;
10653;SDS011;5375;51.250;6.776;2022-12-19T07:33:28;3.37;;;2.90;;
10653;SDS011;5375;51.250;6.776;2022-12-19T07:35:54;4.27;;;3.00;;
10653;SDS011;5375;51.250;6.776;2022-12-19T07:38:20;3.00;;;2.67;;
10653;SDS011;5375;51.250;6.776;2022-12-19T07:40:46;4.17;;;3.20;;
10653;SDS011;5375;51.250;6.776;2022-12-19T07:43:12;4.90;;;3.60;;
10653;SDS011;5375;51.250;6.776;2022-12-19T07:45:38;5.10;;;3.40;;
10653;SDS011;5375;51.250;6.776;2022-12-19T07:48:05;4.57;;;3.43;;
10653;SDS011;5375;51.250;6.776;2022-12-19T07:50:31;4.77;;;3.70;;
10653;SDS011;5375;51.250;6.776;2022-12-19T07:52:57;4.23;;;3.63;;
10653;SDS011;5375;51.250;6.776;2022-12-19T07:55:24;4.50;;;3.47;;
10653;SDS011;5375;51.250;6.776;2022-12-19T07:57:50;4.53;;;3.70;;
10653;SDS011;5375;51.250;6.776;2022-12-19T08:00:16;4.87;;;3.53;;
10653;SDS011;5375;51.250;6.776;2022-12-19T08:02:42;4.07;;;3.40;;
10653;SDS011;5375;51.250;6.776;2022-12-19T08:05:08;3.90;;;3.40;;
10653;SDS011;5375;51.250;6.776;2022-12-19T08:07:35;4.63;;;3.70;;
10653;SDS011;5375;51.250;6.776;2022-12-19T08:10:01;5.00;;;3.70;;
10653;SDS011;5375;51.250;6.776;2022-12-19T08:12:27;8.13;;;3.67;;
10653;SDS011;5375;51.250;6.776;2022-12-19T08:14:53;4.70;;;3.60;;
10653;SDS011;5375;51.250;6.776;2022-12-19T08:17:19;4.83;;;3.40;;
10653;SDS011;5375;51.250;6.776;2022-12-19T08:19:45;5.83;;;3.57;;
10653;SDS011;5375;51.250;6.776;2022-12-19T08:22:14;4.53;;;3.57;;
10653;SDS011;5375;51.250;6.776;2022-12-19T08:24:40;4.43;;;3.67;;
10653;SDS011;5375;51.250;6.776;2022-12-19T08:27:06;4.23;;;3.23;;
10653;SDS011;5375;51.250;6.776;2022-12-19T08:29:32;4.00;;;3.23;;
10653;SDS011;5375;51.250;6.776;2022-12-19T08:31:58;5.17;;;3.80;;
10653;SDS011;5375;51.250;6.776;2022-12-19T08:34:24;6.90;;;3.37;;
10653;SDS011;5375;51.250;6.776;2022-12-19T08:36:50;4.93;;;4.10;;
10653;SDS011;5375;51.250;6.776;2022-12-19T08:39:16;4.83;;;3.33;;
10653;SDS011;5375;51.250;6.776;2022-12-19T08:41:42;5.60;;;3.87;;
10653;SDS011;5375;51.250;6.776;2022-12-19T08:44:09;5.30;;;3.80;;
10653;SDS011;5375;51.250;6.776;2022-12-19T08:46:35;6.50;;;3.40;;
10653;SDS011;5375;51.250;6.776;2022-12-19T08:49:01;4.93;;;3.67;;
10653;SDS011;5375;51.250;6.776;2022-12-19T08:51:27;4.23;;;3.30;;
10653;SDS011;5375;51.250;6.776;2022-12-19T08:53:53;5.13;;;3.63;;
10653;SDS011;5375;51.250;6.776;2022-12-19T08:56:20;5.23;;;3.53;;
10653;SDS011;5375;51.250;6.776;2022-12-19T08:58:47;5.50;;;3.67;;
10653;SDS011;5375;51.250;6.776;2022-12-19T09:01:14;5.97;;;3.40;;
10653;SDS011;5375;51.250;6.776;2022-12-19T09:03:42;5.20;;;3.60;;
10653;SDS011;5375;51.250;6.776;2022-12-19T09:06:09;4.17;;;3.03;;
10653;SDS011;5375;51.250;6.776;2022-12-19T09:08:35;7.33;;;3.60;;
10653;SDS011;5375;51.250;6.776;2022-12-19T09:11:03;5.73;;;3.53;;
10653;SDS011;5375;51.250;6.776;2022-12-19T09:13:30;5.87;;;3.47;;
10653;SDS011;5375;51.250;6.776;2022-12-19T09:16:29;4.13;;;3.20;;
10653;SDS011;5375;51.250;6.776;2022-12-19T09:18:52;5.37;;;3.20;;
10653;SDS011;5375;51.250;6.776;2022-12-19T09:21:20;4.97;;;3.17;;
10653;SDS011;5375;51.250;6.776;2022-12-19T09:23:47;3.63;;;3.10;;
10653;SDS011;5375;51.250;6.776;2022-12-19T09:26:13;4.27;;;3.20;;
10653;SDS011;5375;51.250;6.776;2022-12-19T09:28:40;3.50;;;3.20;;
10653;SDS011;5375;51.250;6.776;2022-12-19T09:31:08;4.60;;;3.20;;
10653;SDS011;5375;51.250;6.776;2022-12-19T09:33:35;9.27;;;3.60;;
10653;SDS011;5375;51.250;6.776;2022-12-19T09:36:02;5.80;;;3.17;;
10653;SDS011;5375;51.250;6.776;2022-12-19T09:38:29;5.43;;;3.43;;
10653;SDS011;5375;51.250;6.776;2022-12-19T09:46:18;4.90;;;3.37;;
10653;SDS011;5375;51.250;6.776;2022-12-19T09:48:44;5.67;;;3.40;;
10653;SDS011;5375;51.250;6.776;2022-12-19T09:51:12;4.67;;;3.20;;
10653;SDS011;5375;51.250;6.776;2022-12-19T09:56:09;5.73;;;3.30;;
10653;SDS011;5375;51.250;6.776;2022-12-19T09:58:43;3.40;;;2.80;;
10653;SDS011;5375;51.250;6.776;2022-12-19T10:01:16;5.57;;;3.10;;
10653;SDS011;5375;51.250;6.776;2022-12-19T10:03:45;5.23;;;3.00;;
10653;SDS011;5375;51.250;6.776;2022-12-19T10:06:19;4.83;;;3.20;;
10653;SDS011;5375;51.250;6.776;2022-12-19T10:08:45;4.17;;;2.67;;
10653;SDS011;5375;51.250;6.776;2022-12-19T10:16:29;5.23;;;3.20;;
10653;SDS011;5375;51.250;6.776;2022-12-19T10:18:59;3.63;;;2.90;;
10653;SDS011;5375;51.250;6.776;2022-12-19T10:26:27;3.97;;;2.70;;
10653;SDS011;5375;51.250;6.776;2022-12-19T10:31:31;2.77;;;2.40;;
10653;SDS011;5375;51.250;6.776;2022-12-19T10:34:01;3.80;;;2.50;;
10653;SDS011;5375;51.250;6.776;2022-12-19T10:36:30;3.07;;;2.60;;
10653;SDS011;5375;51.250;6.776;2022-12-19T10:38:58;4.63;;;2.80;;
10653;SDS011;5375;51.250;6.776;2022-12-19T10:41:29;4.03;;;2.90;;
10653;SDS011;5375;51.250;6.776;2022-12-19T10:44:03;3.47;;;2.80;;
10653;SDS011;5375;51.250;6.776;2022-12-19T10:48:57;3.77;;;2.53;;
10653;SDS011;5375;51.250;6.776;2022-12-19T10:51:24;4.57;;;2.70;;
10653;SDS011;5375;51.250;6.776;2022-12-19T10:53:55;3.60;;;2.97;;
10653;SDS011;5375;51.250;6.776;2022-12-19T10:56:23;5.13;;;2.47;;
10653;SDS011;5375;51.250;6.776;2022-12-19T10:58:52;4.53;;;3.20;;
10653;SDS011;5375;51.250;6.776;2022-12-19T11:01:28;2.73;;;2.40;;
10653;SDS011;5375;51.250;6.776;2022-12-19T11:11:47;3.80;;;2.90;;
10653;SDS011;5375;51.250;6.776;2022-12-19T11:14:24;4.27;;;2.43;;
10653;SDS011;5375;51.250;6.776;2022-12-19T11:16:50;6.20;;;3.40;;
10653;SDS011;5375;51.250;6.776;2022-12-19T11:19:18;6.87;;;3.50;;
10653;SDS011;5375;51.250;6.776;2022-12-19T11:21:45;6.30;;;3.40;;
10653;SDS011;5375;51.250;6.776;2022-12-19T11:24:12;3.67;;;3.03;;
10653;SDS011;5375;51.250;6.776;2022-12-19T11:26:43;8.57;;;3.40;;
10653;SDS011;5375;51.250;6.776;2022-12-19T11:31:55;12.23;;;5.23;;
10653;SDS011;5375;51.250;6.776;2022-12-19T11:34:22;18.07;;;5.97;;
10653;SDS011;5375;51.250;6.776;2022-12-19T11:42:00;18.27;;;5.53;;
10653;SDS011;5375;51.250;6.776;2022-12-19T11:44:32;15.80;;;6.40;;
10653;SDS011;5375;51.250;6.776;2022-12-19T11:47:16;16.53;;;5.17;;
10653;SDS011;5375;51.250;6.776;2022-12-19T11:49:45;19.60;;;5.73;;
10653;SDS011;5375;51.250;6.776;2022-12-19T11:52:22;12.67;;;5.43;;
10653;SDS011;5375;51.250;6.776;2022-12-19T11:54:55;13.47;;;5.63;;
10653;SDS011;5375;51.250;6.776;2022-12-19T11:57:23;16.70;;;5.43;;
10653;SDS011;5375;51.250;6.776;2022-12-19T11:59:50;16.53;;;5.50;;
10653;SDS011;5375;51.250;6.776;2022-12-19T12:04:59;12.67;;;6.00;;
10653;SDS011;5375;51.250;6.776;2022-12-19T12:07:33;11.37;;;5.40;;
10653;SDS011;5375;51.250;6.776;2022-12-19T12:17:56;13.63;;;5.20;;
10653;SDS011;5375;51.250;6.776;2022-12-19T12:36:48;10.70;;;4.60;;
10653;SDS011;5375;51.250;6.776;2022-12-19T12:39:18;9.80;;;4.87;;
10653;SDS011;5375;51.250;6.776;2022-12-19T12:44:39;9.53;;;4.90;;
10653;SDS011;5375;51.250;6.776;2022-12-19T12:47:19;12.00;;;4.73;;
10653;SDS011;5375;51.250;6.776;2022-12-19T12:49:50;10.23;;;4.83;;
10653;SDS011;5375;51.250;6.776;2022-12-19T12:52:19;11.93;;;4.90;;
10653;SDS011;5375;51.250;6.776;2022-12-19T12:54:46;10.77;;;4.57;;
10653;SDS011;5375;51.250;6.776;2022-12-19T12:57:17;9.47;;;4.90;;
10653;SDS011;5375;51.250;6.776;2022-12-19T12:59:44;10.70;;;4.97;;
10653;SDS011;5375;51.250;6.776;2022-12-19T13:02:20;13.10;;;4.60;;
10653;SDS011;5375;51.250;6.776;2022-12-19T13:04:56;8.27;;;4.23;;
10653;SDS011;5375;51.250;6.776;2022-12-19T13:10:04;10.67;;;4.57;;
10653;SDS011;5375;51.250;6.776;2022-12-19T13:12:30;9.90;;;4.63;;
10653;SDS011;5375;51.250;6.776;2022-12-19T13:27:55;9.43;;;4.07;;
10653;SDS011;5375;51.250;6.776;2022-12-19T13:30:22;8.87;;;4.17;;
10653;SDS011;5375;51.250;6.776;2022-12-19T13:37:41;11.83;;;3.90;;
10653;SDS011;5375;51.250;6.776;2022-12-19T13:42:36;8.97;;;4.23;;
10653;SDS011;5375;51.250;6.776;2022-12-19T13:45:27;8.80;;;4.13;;
10653;SDS011;5375;51.250;6.776;2022-12-19T13:47:54;8.63;;;4.27;;
10653;SDS011;5375;51.250;6.776;2022-12-19T13:52:47;7.53;;;4.07;;
10653;SDS011;5375;51.250;6.776;2022-12-19T13:55:13;7.27;;;3.73;;
10653;SDS011;5375;51.250;6.776;2022-12-19T13:57:39;9.80;;;4.00;;
10653;SDS011;5375;51.250;6.776;2022-12-19T14:00:07;8.17;;;4.37;;
10653;SDS011;5375;51.250;6.776;2022-12-19T14:02:36;8.23;;;4.13;;
10653;SDS011;5375;51.250;6.776;2022-12-19T14:05:02;8.13;;;3.93;;
10653;SDS011;5375;51.250;6.776;2022-12-19T14:10:01;8.43;;;3.77;;
10653;SDS011;5375;51.250;6.776;2022-12-19T14:12:28;6.93;;;3.90;;
10653;SDS011;5375;51.250;6.776;2022-12-19T14:15:26;8.03;;;3.97;;
10653;SDS011;5375;51.250;6.776;2022-12-19T14:17:52;10.87;;;4.03;;
10653;SDS011;5375;51.250;6.776;2022-12-19T14:20:23;7.97;;;3.90;;
10653;SDS011;5375;51.250;6.776;2022-12-19T14:22:49;8.97;;;3.80;;
10653;SDS011;5375;51.250;6.776;2022-12-19T14:25:15;6.27;;;4.20;;
10653;SDS011;5375;51.250;6.776;2022-12-19T14:29:01;5.23;;;3.57;;
10653;SDS011;5375;51.250;6.776;2022-12-19T14:31:29;7.50;;;4.10;;
10653;SDS011;5375;51.250;6.776;2022-12-19T14:33:56;6.77;;;3.57;;
10653;SDS011;5375;51.250;6.776;2022-12-19T14:36:27;8.80;;;3.67;;
10653;SDS011;5375;51.250;6.776;2022-12-19T14:38:54;7.83;;;3.90;;
10653;SDS011;5375;51.250;6.776;2022-12-19T14:44:11;7.93;;;3.80;;
10653;SDS011;5375;51.250;6.776;2022-12-19T14:46:37;9.37;;;3.67;;
10653;SDS011;5375;51.250;6.776;2022-12-19T14:49:21;5.30;;;3.40;;
10653;SDS011;5375;51.250;6.776;2022-12-19T14:51:48;6.20;;;3.37;;
10653;SDS011;5375;51.250;6.776;2022-12-19T14:54:16;7.77;;;4.20;;
10653;SDS011;5375;51.250;6.776;2022-12-19T15:07:01;5.13;;;3.20;;
10653;SDS011;5375;51.250;6.776;2022-12-19T15:09:28;5.00;;;3.20;;
10653;SDS011;5375;51.250;6.776;2022-12-19T15:11:55;9.03;;;3.93;;
10653;SDS011;5375;51.250;6.776;2022-12-19T15:14:45;5.33;;;3.00;;
10653;SDS011;5375;51.250;6.776;2022-12-19T15:17:19;5.40;;;3.73;;
10653;SDS011;5375;51.250;6.776;2022-12-19T15:19:46;8.33;;;3.80;;
10653;SDS011;5375;51.250;6.776;2022-12-19T15:22:12;5.53;;;3.40;;
10653;SDS011;5375;51.250;6.776;2022-12-19T15:24:38;6.37;;;3.57;;
10653;SDS011;5375;51.250;6.776;2022-12-19T15:27:04;6.30;;;3.33;;
10653;SDS011;5375;51.250;6.776;2022-12-19T15:29:30;6.70;;;3.43;;
10653;SDS011;5375;51.250;6.776;2022-12-19T15:31:58;6.90;;;3.40;;
10653;SDS011;5375;51.250;6.776;2022-12-19T15:34:28;6.93;;;3.33;;
10653;SDS011;5375;51.250;6.776;2022-12-19T15:36:55;4.83;;;3.10;;
10653;SDS011;5375;51.250;6.776;2022-12-19T15:39:22;6.07;;;3.40;;
10653;SDS011;5375;51.250;6.776;2022-12-19T15:41:52;5.60;;;3.37;;
10653;SDS011;5375;51.250;6.776;2022-12-19T15:44:27;6.20;;;3.63;;
10653;SDS011;5375;51.250;6.776;2022-12-19T15:46:54;5.00;;;3.20;;
10653;SDS011;5375;51.250;6.776;2022-12-19T15:49:21;6.03;;;3.30;;
10653;SDS011;5375;51.250;6.776;2022-12-19T15:51:47;4.00;;;3.23;;
10653;SDS011;5375;51.250;6.776;2022-12-19T15:54:14;4.87;;;3.13;;
10653;SDS011;5375;51.250;6.776;2022-12-19T15:56:41;5.33;;;3.60;;
10653;SDS011;5375;51.250;6.776;2022-12-19T15:59:18;6.63;;;3.57;;
10653;SDS011;5375;51.250;6.776;2022-12-19T16:01:46;5.83;;;3.37;;
10653;SDS011;5375;51.250;6.776;2022-12-19T16:04:12;5.23;;;3.30;;
10653;SDS011;5375;51.250;6.776;2022-12-19T16:06:39;4.33;;;3.10;;
10653;SDS011;5375;51.250;6.776;2022-12-19T16:09:14;6.07;;;3.03;;
10653;SDS011;5375;51.250;6.776;2022-12-19T16:11:42;4.43;;;3.17;;
10653;SDS011;5375;51.250;6.776;2022-12-19T16:14:08;5.47;;;3.10;;
10653;SDS011;5375;51.250;6.776;2022-12-19T16:16:35;5.03;;;3.30;;
10653;SDS011;5375;51.250;6.776;2022-12-19T16:19:01;5.07;;;3.13;;
10653;SDS011;5375;51.250;6.776;2022-12-19T16:21:27;4.73;;;3.43;;
10653;SDS011;5375;51.250;6.776;2022-12-19T16:23:53;4.60;;;3.30;;
10653;SDS011;5375;51.250;6.776;2022-12-19T16:28:51;4.60;;;2.87;;
10653;SDS011;5375;51.250;6.776;2022-12-19T16:31:18;5.97;;;3.30;;
10653;SDS011;5375;51.250;6.776;2022-12-19T16:33:47;5.87;;;3.20;;
10653;SDS011;5375;51.250;6.776;2022-12-19T16:36:13;5.77;;;3.13;;
10653;SDS011;5375;51.250;6.776;2022-12-19T16:38:39;6.40;;;3.33;;
10653;SDS011;5375;51.250;6.776;2022-12-19T16:41:05;5.63;;;3.00;;
10653;SDS011;5375;51.250;6.776;2022-12-19T16:43:32;4.87;;;3.20;;
10653;SDS011;5375;51.250;6.776;2022-12-19T16:46:00;6.43;;;3.37;;
10653;SDS011;5375;51.250;6.776;2022-12-19T16:48:29;5.23;;;3.00;;
10653;SDS011;5375;51.250;6.776;2022-12-19T16:50:56;4.43;;;3.20;;
10653;SDS011;5375;51.250;6.776;2022-12-19T16:53:22;5.17;;;3.40;;
10653;SDS011;5375;51.250;6.776;2022-12-19T16:55:48;4.27;;;3.30;;
10653;SDS011;5375;51.250;6.776;2022-12-19T16:58:18;4.77;;;2.80;;
10653;SDS011;5375;51.250;6.776;2022-12-19T17:00:45;4.30;;;3.00;;
10653;SDS011;5375;51.250;6.776;2022-12-19T17:03:28;5.40;;;2.70;;
10653;SDS011;5375;51.250;6.776;2022-12-19T17:05:56;4.30;;;3.00;;
10653;SDS011;5375;51.250;6.776;2022-12-19T17:08:22;7.17;;;3.40;;
10653;SDS011;5375;51.250;6.776;2022-12-19T17:10:48;5.30;;;3.00;;
10653;SDS011;5375;51.250;6.776;2022-12-19T17:13:15;5.13;;;2.97;;
10653;SDS011;5375;51.250;6.776;2022-12-19T17:15:42;5.73;;;3.20;;
10653;SDS011;5375;51.250;6.776;2022-12-19T17:18:10;5.20;;;3.10;;
10653;SDS011;5375;51.250;6.776;2022-12-19T17:20:38;6.17;;;3.27;;
10653;SDS011;5375;51.250;6.776;2022-12-19T17:26:01;6.33;;;2.90;;
10653;SDS011;5375;51.250;6.776;2022-12-19T17:28:27;5.93;;;3.00;;
10653;SDS011;5375;51.250;6.776;2022-12-19T17:30:54;5.43;;;3.20;;
10653;SDS011;5375;51.250;6.776;2022-12-19T17:33:21;5.10;;;3.27;;
10653;SDS011;5375;51.250;6.776;2022-12-19T17:35:48;5.10;;;3.30;;
10653;SDS011;5375;51.250;6.776;2022-12-19T17:38:15;6.07;;;2.97;;
10653;SDS011;5375;51.250;6.776;2022-12-19T17:40:41;4.27;;;3.00;;